Time;durP1;ratioP1;P1;durP2;ratioP2;P2;SDS_P1;SDS_P2;PMS_P1;PMS_P2;Temp;Humidity;BMP_temperature;BMP_pressure;BME280_temperature;BME280_humidity;BME280_pressure;Samples;Min_cycle;Max_cycle;Signal;HPM_P1;HPM_P2
2022/11/11 00:14:09;;;;;;;40.70;23.40;;;;;;;9.63;100.00;101413.34;640517;1313;138952;-80
2022/11/11 00:29:31;;;;;;;36.10;21.00;;;;;;;9.66;100.00;101407.05;639628;1313;138529;-80
2022/11/11 00:44:54;;;;;;;35.50;18.10;;;;;;;9.82;100.00;101398.66;640300;1298;139115;-79
2022/11/11 01:00:16;;;;;;;32.30;16.40;;;;;;;9.95;100.00;101393.05;640176;1313;138719;-78
2022/11/11 01:36:30;;;;;;;31.80;16.40;;;;;;;10.00;100.00;101401.49;623304;1345;545437;-83
2022/11/11 01:52:01;;;;;;;29.60;15.00;;;;;;;10.01;100.00;101409.30;632821;1321;138466;-79
2022/11/11 02:07:23;;;;;;;30.40;12.90;;;;;;;10.13;100.00;101395.17;633053;1322;138626;-83
2022/11/11 02:22:59;;;;;;;33.00;14.40;;;;;;;10.32;100.00;101387.77;632744;1322;138607;-79
2022/11/11 02:38:26;;;;;;;26.50;12.40;;;;;;;10.46;100.00;101380.00;632930;1322;138761;-81
2022/11/11 02:53:48;;;;;;;23.80;10.40;;;;;;;10.65;100.00;101370.92;632515;1320;138634;-77
2022/11/11 03:09:10;;;;;;;19.40;9.40;;;;;;;10.89;100.00;101377.29;637465;1316;138652;-82
2022/11/11 03:40:33;;;;;;;19.30;10.50;;;;;;;11.25;100.00;101435.83;637234;1316;138884;-78
2022/11/11 03:55:56;;;;;;;20.40;10.20;;;;;;;11.38;100.00;101437.52;638968;1307;138576;-78
2022/11/11 04:11:28;;;;;;;18.80;10.10;;;;;;;11.36;100.00;101437.09;637332;1316;139991;-78
2022/11/11 04:26:57;;;;;;;39.00;23.60;;;;;;;11.36;100.00;101415.73;637867;1316;138825;-81
2022/11/11 04:42:19;;;;;;;20.60;12.10;;;;;;;11.41;100.00;101408.17;637410;1316;139226;-78
2022/11/11 04:57:46;;;;;;;20.70;9.40;;;;;;;11.43;100.00;101402.11;638071;1316;139037;-78
2022/11/11 05:28:50;;;;;;;27.80;11.80;;;;;;;11.52;100.00;101385.87;637768;1302;139112;-79
2022/11/11 05:44:12;;;;;;;20.30;8.40;;;;;;;11.60;100.00;101383.15;637485;1309;139121;-78
2022/11/11 05:59:34;;;;;;;23.80;11.10;;;;;;;11.70;100.00;101377.85;637259;1316;138852;-78
2022/11/11 06:14:56;;;;;;;27.00;9.40;;;;;;;11.80;100.00;101370.80;637899;1316;139114;-79
2022/11/11 06:30:19;;;;;;;23.10;8.00;;;;;;;11.87;100.00;101396.56;637491;1316;139364;-83
2022/11/11 06:46:02;;;;;;;21.70;9.90;;;;;;;11.98;100.00;101390.36;637895;1311;139191;-78
2022/11/11 07:01:24;;;;;;;22.40;10.00;;;;;;;12.01;100.00;101390.41;637802;1316;138661;-79
2022/11/11 07:16:48;;;;;;;22.50;12.40;;;;;;;12.08;100.00;101407.09;637872;1316;139030;-78
2022/11/11 07:32:09;;;;;;;45.80;24.30;;;;;;;12.18;100.00;101402.98;637807;1316;138599;-79
2022/11/11 07:47:33;;;;;;;45.40;22.80;;;;;;;12.30;100.00;101437.14;637288;1308;139106;-78
2022/11/11 08:02:55;;;;;;;31.20;12.60;;;;;;;12.40;100.00;101436.03;637941;1303;139083;-83
2022/11/11 08:18:20;;;;;;;49.00;18.50;;;;;;;12.45;100.00;101438.30;638068;1307;139522;-83
2022/11/11 08:33:43;;;;;;;25.20;11.10;;;;;;;12.58;100.00;101438.04;637214;1302;139594;-78
2022/11/11 08:49:05;;;;;;;138.10;82.00;;;;;;;12.64;100.00;101459.95;638536;1302;138878;-79
2022/11/11 09:04:27;;;;;;;32.00;17.20;;;;;;;12.71;100.00;101463.11;639526;1316;139415;-81
2022/11/11 09:20:07;;;;;;;52.60;23.00;;;;;;;12.64;100.00;101458.04;644500;1313;139386;-79
2022/11/11 09:35:30;;;;;;;37.60;17.50;;;;;;;12.78;100.00;101457.83;640044;1316;139478;-78
2022/11/11 09:50:57;;;;;;;44.50;26.80;;;;;;;12.79;100.00;101457.58;638580;1316;139239;-81
2022/11/11 10:06:29;;;;;;;40.00;16.40;;;;;;;12.88;100.00;101432.45;638524;1315;139261;-78
2022/11/11 10:21:58;;;;;;;142.80;49.60;;;;;;;12.98;100.00;101428.89;640205;1313;139080;-80
2022/11/11 10:37:41;;;;;;;89.50;34.20;;;;;;;12.98;100.00;101424.69;640327;1298;139176;-78
2022/11/11 10:53:21;;;;;;;98.20;36.60;;;;;;;13.02;100.00;101435.06;639756;1313;139471;-79
2022/11/11 11:08:48;;;;;;;80.80;24.80;;;;;;;13.03;100.00;101438.98;640006;1313;139152;-80
2022/11/11 11:24:25;;;;;;;24.30;13.80;;;;;;;13.05;100.00;101453.79;639551;1298;139540;-83
2022/11/11 11:39:57;;;;;;;26.00;12.30;;;;;;;12.98;100.00;101464.12;639710;1304;139090;-82
2022/11/11 11:55:30;;;;;;;24.60;12.10;;;;;;;12.91;100.00;101458.38;641733;1313;140044;-82
2022/11/11 12:11:02;;;;;;;25.50;13.10;;;;;;;12.80;100.00;101443.48;639803;1307;139002;-78
2022/11/11 12:26:51;;;;;;;24.00;12.20;;;;;;;12.67;100.00;101456.09;639300;1313;139260;-80
2022/11/11 12:42:20;;;;;;;23.20;13.90;;;;;;;12.61;100.00;101447.26;639730;1306;139005;-78
2022/11/11 12:58:16;;;;;;;85.90;36.30;;;;;;;12.63;100.00;101458.45;639179;1313;139404;-81
2022/11/11 13:14:04;;;;;;;26.90;13.40;;;;;;;12.66;100.00;101473.02;639782;1313;138890;-81
2022/11/11 13:30:04;;;;;;;63.90;30.80;;;;;;;12.60;100.00;101482.58;639532;1313;139371;-82
2022/11/11 13:45:32;;;;;;;24.00;12.60;;;;;;;12.63;100.00;101474.10;641060;1313;176973;-78
2022/11/11 14:00:59;;;;;;;35.50;13.80;;;;;;;12.72;100.00;101476.07;649304;1309;139820;-78
2022/11/11 14:16:33;;;;;;;19.80;11.80;;;;;;;12.72;100.00;101491.69;651098;1313;139238;-79
2022/11/11 14:32:06;;;;;;;75.60;30.70;;;;;;;12.66;100.00;101496.74;638909;1305;139586;-78
2022/11/11 14:47:38;;;;;;;84.20;35.60;;;;;;;12.67;100.00;101514.71;637899;1314;139388;-78
2022/11/11 15:03:19;;;;;;;71.80;30.10;;;;;;;12.54;100.00;101522.53;638111;1314;138891;-79
2022/11/11 15:18:57;;;;;;;64.10;34.10;;;;;;;12.49;100.00;101523.13;638426;1313;140879;-78
2022/11/11 15:34:34;;;;;;;41.10;18.70;;;;;;;12.44;100.00;101520.98;639158;1313;139375;-79
2022/11/11 15:49:57;;;;;;;49.60;21.80;;;;;;;12.43;100.00;101528.61;638835;1313;139789;-80
2022/11/11 16:05:25;;;;;;;46.40;25.20;;;;;;;12.44;100.00;101559.02;640275;1312;138958;-78
2022/11/11 16:20:57;;;;;;;40.30;20.20;;;;;;;12.46;100.00;101582.23;640876;1310;139392;-81
2022/11/11 16:36:19;;;;;;;54.70;28.50;;;;;;;12.44;100.00;101576.09;640646;1313;139603;-79
2022/11/11 16:51:46;;;;;;;24.70;14.00;;;;;;;12.39;100.00;101572.07;640029;1313;139624;-83
2022/11/11 17:07:36;;;;;;;32.80;14.90;;;;;;;12.37;100.00;101565.38;641255;1311;139215;-80
2022/11/11 17:22:58;;;;;;;48.00;19.90;;;;;;;12.35;100.00;101562.57;641856;1312;139555;-78
2022/11/11 17:38:21;;;;;;;118.90;49.80;;;;;;;12.39;100.00;101589.41;641307;1310;139055;-80
2022/11/11 17:53:44;;;;;;;93.20;35.80;;;;;;;12.45;100.00;101599.00;640968;1311;139708;-78
2022/11/11 18:09:07;;;;;;;48.70;21.90;;;;;;;12.47;100.00;101595.14;640722;1313;139066;-82
2022/11/11 18:24:29;;;;;;;67.10;38.30;;;;;;;12.49;100.00;101599.91;641632;1312;139042;-83
2022/11/11 18:39:50;;;;;;;32.10;15.70;;;;;;;12.57;100.00;101595.67;640664;1306;139353;-82
2022/11/11 18:55:13;;;;;;;30.30;16.10;;;;;;;12.52;100.00;101591.10;641455;1311;138904;-83
2022/11/11 19:10:35;;;;;;;40.90;23.70;;;;;;;12.55;100.00;101606.84;641146;1312;139369;-79
2022/11/11 19:25:58;;;;;;;30.90;16.20;;;;;;;12.51;100.00;101619.27;642008;1311;139167;-80
2022/11/11 19:41:23;;;;;;;26.90;15.70;;;;;;;12.55;100.00;101624.40;641979;1305;139198;-83
2022/11/11 19:56:45;;;;;;;50.60;22.40;;;;;;;12.68;100.00;101631.34;641866;1312;139163;-79
2022/11/11 20:12:08;;;;;;;44.90;21.70;;;;;;;12.49;100.00;101640.27;642096;1312;139010;-80
2022/11/11 20:27:30;;;;;;;40.10;23.80;;;;;;;12.55;100.00;101652.67;641471;1311;139103;-79
2022/11/11 20:42:52;;;;;;;31.60;16.80;;;;;;;12.56;100.00;101647.87;641049;1311;140983;-78
2022/11/11 20:58:15;;;;;;;32.80;14.50;;;;;;;12.56;100.00;101640.67;641068;1312;139151;-78
2022/11/11 21:13:38;;;;;;;32.30;16.20;;;;;;;12.53;100.00;101649.61;644244;1298;138815;-80
2022/11/11 21:29:00;;;;;;;30.60;14.50;;;;;;;12.55;100.00;101646.89;643079;1312;139951;-79
2022/11/11 21:44:23;;;;;;;32.10;14.10;;;;;;;12.55;100.00;101642.81;641802;1311;139066;-84
2022/11/11 21:59:45;;;;;;;25.60;13.50;;;;;;;12.58;100.00;101650.89;640294;1312;139119;-80
2022/11/11 22:15:08;;;;;;;24.90;15.60;;;;;;;12.58;100.00;101656.13;641986;1312;139014;-79
2022/11/11 22:30:30;;;;;;;22.20;12.20;;;;;;;12.62;100.00;101661.08;644172;1312;141159;-81
2022/11/11 22:45:57;;;;;;;27.90;14.00;;;;;;;12.64;100.00;101660.58;641140;1312;139460;-78
2022/11/11 23:01:25;;;;;;;17.50;10.70;;;;;;;12.66;100.00;101663.75;641277;1310;139524;-81
2022/11/11 23:16:51;;;;;;;17.90;10.20;;;;;;;12.71;100.00;101663.95;640925;1312;139194;-79
2022/11/11 23:32:13;;;;;;;21.70;12.50;;;;;;;12.72;100.00;101668.21;641327;1311;139575;-79
2022/11/11 23:47:36;;;;;;;23.50;12.60;;;;;;;12.73;100.00;101664.67;640824;1312;139508;-85
